Time;durP1;ratioP1;P1;durP2;ratioP2;P2;SDS_P1;SDS_P2;PMS_P1;PMS_P2;Temp;Humidity;BMP_temperature;BMP_pressure;BME280_temperature;BME280_humidity;BME280_pressure;Samples;Min_cycle;Max_cycle;Signal;HPM_P1;HPM_P2
2023/03/08 00:02:05;;;;;;;14.30;10.50;;;;;;;-0.44;100.00;99165.91;106519;1259;61824;-70
2023/03/08 00:04:32;;;;;;;16.10;10.30;;;;;;;-0.38;100.00;99169.46;107485;1259;59370;-69
2023/03/08 00:07:00;;;;;;;16.90;10.80;;;;;;;-0.36;100.00;99175.46;105878;1259;72739;-71
2023/03/08 00:09:27;;;;;;;14.20;9.60;;;;;;;-0.32;100.00;99183.82;105737;1259;69737;-69
2023/03/08 00:11:56;;;;;;;15.40;11.20;;;;;;;-0.28;100.00;99186.73;106022;1259;72569;-69
2023/03/08 00:14:25;;;;;;;15.40;10.20;;;;;;;-0.23;100.00;99184.02;105838;1259;61728;-70
2023/03/08 00:16:52;;;;;;;16.10;10.10;;;;;;;-0.19;100.00;99184.00;105538;1259;62290;-72
2023/03/08 00:19:22;;;;;;;16.70;10.90;;;;;;;-0.15;100.00;99189.02;105795;1264;73525;-70
2023/03/08 00:21:51;;;;;;;13.10;9.80;;;;;;;-0.09;100.00;99192.10;106041;1259;71356;-70
2023/03/08 00:24:18;;;;;;;13.40;10.40;;;;;;;-0.04;100.00;99197.38;105731;1264;72427;-71
2023/03/08 00:26:48;;;;;;;14.90;9.80;;;;;;;-0.02;100.00;99197.83;105738;1260;62885;-74
2023/03/08 00:29:18;;;;;;;15.00;10.10;;;;;;;0.02;100.00;99200.61;105630;1260;61289;-70
2023/03/08 00:31:44;;;;;;;13.70;9.60;;;;;;;0.06;100.00;99204.41;106047;1259;73807;-71
2023/03/08 00:34:17;;;;;;;13.50;9.50;;;;;;;0.09;99.99;99205.68;105750;1263;71284;-71
2023/03/08 00:36:47;;;;;;;13.30;8.40;;;;;;;0.11;99.83;99207.63;105692;1266;72704;-71
2023/03/08 00:39:15;;;;;;;11.60;8.50;;;;;;;0.14;99.49;99206.95;105793;1263;61265;-71
2023/03/08 00:41:42;;;;;;;12.00;8.50;;;;;;;0.17;99.25;99206.71;105936;1260;61421;-71
2023/03/08 00:44:09;;;;;;;11.30;8.00;;;;;;;0.19;99.06;99205.77;105730;1259;73658;-71
2023/03/08 00:46:39;;;;;;;12.80;8.40;;;;;;;0.22;98.92;99209.38;105884;1265;69742;-70
2023/03/08 00:49:06;;;;;;;11.30;7.40;;;;;;;0.23;98.63;99208.73;105962;1259;71483;-70
2023/03/08 00:51:32;;;;;;;8.70;7.20;;;;;;;0.23;98.50;99206.63;106003;1259;61130;-71
2023/03/08 00:53:59;;;;;;;9.70;6.60;;;;;;;0.23;98.00;99209.62;105774;1259;61618;-71
2023/03/08 00:56:26;;;;;;;8.50;6.60;;;;;;;0.22;97.65;99206.71;105898;1259;73160;-73
2023/03/08 00:58:54;;;;;;;8.60;6.20;;;;;;;0.20;97.41;99208.62;105747;1259;70966;-74
2023/03/08 01:01:23;;;;;;;9.80;6.20;;;;;;;0.19;97.16;99212.55;105775;1259;72535;-70
2023/03/08 01:03:52;;;;;;;8.50;6.40;;;;;;;0.17;96.97;99212.60;106015;1262;61371;-71
2023/03/08 01:06:20;;;;;;;9.00;5.70;;;;;;;0.15;96.77;99214.89;105731;1259;61759;-71
2023/03/08 01:08:46;;;;;;;7.50;5.70;;;;;;;0.11;96.60;99217.87;105677;1259;73228;-74
2023/03/08 01:11:17;;;;;;;8.10;5.10;;;;;;;0.07;96.54;99216.46;105649;1259;71098;-73
2023/03/08 01:13:45;;;;;;;6.80;4.90;;;;;;;0.04;96.39;99218.73;105914;1260;72066;-71
2023/03/08 01:16:18;;;;;;;9.50;5.10;;;;;;;-0.01;96.18;99213.92;105481;1259;61235;-70
2023/03/08 01:18:46;;;;;;;7.90;5.10;;;;;;;-0.05;96.25;99210.10;105669;1259;62540;-73
2023/03/08 01:21:12;;;;;;;9.00;5.40;;;;;;;-0.10;96.32;99211.44;105717;1260;74421;-72
2023/03/08 01:23:39;;;;;;;12.10;5.20;;;;;;;-0.12;96.26;99206.29;105869;1260;70107;-70
2023/03/08 01:26:14;;;;;;;23.40;7.60;;;;;;;-0.14;96.16;99203.54;105547;1260;71540;-72
2023/03/08 01:28:45;;;;;;;16.50;6.00;;;;;;;-0.15;95.95;99206.71;105630;1259;61195;-72
2023/03/08 01:31:15;;;;;;;6.70;4.60;;;;;;;-0.14;95.95;99203.83;105636;1259;61359;-71
2023/03/08 01:33:49;;;;;;;7.40;4.70;;;;;;;-0.12;95.76;99204.14;105635;1260;73067;-72
2023/03/08 01:36:19;;;;;;;7.00;4.50;;;;;;;-0.11;95.48;99200.08;105566;1267;70811;-71
2023/03/08 01:38:47;;;;;;;6.40;4.10;;;;;;;-0.09;95.37;99196.79;105684;1260;71926;-70
2023/03/08 01:41:23;;;;;;;9.20;4.70;;;;;;;-0.08;95.25;99194.75;105845;1265;61253;-71
2023/03/08 01:43:51;;;;;;;6.60;3.90;;;;;;;-0.06;95.09;99192.17;105614;1260;61254;-72
2023/03/08 01:46:34;;;;;;;7.30;4.00;;;;;;;-0.06;94.94;99193.14;105596;1265;74440;-69
2023/03/08 01:49:16;;;;;;;5.20;3.70;;;;;;;-0.05;94.85;99193.94;106066;1262;69764;-70
2023/03/08 01:51:45;;;;;;;6.70;3.90;;;;;;;-0.04;94.65;99190.21;105555;1261;72737;-71
2023/03/08 01:54:27;;;;;;;10.00;4.10;;;;;;;-0.04;94.61;99191.41;105945;1259;61135;-70
2023/03/08 01:57:01;;;;;;;4.80;3.60;;;;;;;-0.01;94.51;99186.11;105698;1265;61299;-70
2023/03/08 01:59:31;;;;;;;6.50;3.90;;;;;;;0.01;94.51;99183.20;106669;1260;73674;-69
2023/03/08 02:01:59;;;;;;;6.20;3.90;;;;;;;0.02;94.45;99182.21;106716;1259;69860;-70
2023/03/08 02:04:26;;;;;;;5.30;3.80;;;;;;;0.02;94.20;99182.74;106236;1259;72978;-70
2023/03/08 02:06:53;;;;;;;8.50;3.90;;;;;;;0.02;94.30;99180.01;106661;1259;61218;-69
2023/03/08 02:09:20;;;;;;;7.30;4.00;;;;;;;-0.01;94.16;99178.12;105837;1259;61334;-69
2023/03/08 02:11:50;;;;;;;7.70;4.30;;;;;;;-0.02;94.27;99178.91;106356;1259;73130;-69
2023/03/08 02:14:17;;;;;;;6.90;4.10;;;;;;;-0.05;94.29;99173.96;106623;1260;71534;-70
2023/03/08 02:16:44;;;;;;;6.10;4.10;;;;;;;-0.07;94.21;99175.23;106546;1260;71225;-70
2023/03/08 02:19:19;;;;;;;5.30;4.00;;;;;;;-0.11;94.29;99170.34;106696;1260;61135;-70
2023/03/08 02:21:46;;;;;;;12.70;6.40;;;;;;;-0.13;94.36;99174.05;106298;1259;61371;-70
2023/03/08 02:24:22;;;;;;;25.70;10.00;;;;;;;-0.16;94.77;99178.88;106062;1259;73489;-69
2023/03/08 02:26:59;;;;;;;31.80;13.30;;;;;;;-0.19;95.00;99173.89;106468;1260;69731;-70
2023/03/08 02:29:27;;;;;;;27.30;11.70;;;;;;;-0.21;94.97;99175.42;106342;1260;72730;-70
2023/03/08 02:31:54;;;;;;;14.50;7.40;;;;;;;-0.23;95.05;99176.86;106604;1259;61237;-70
2023/03/08 02:34:21;;;;;;;10.40;5.60;;;;;;;-0.23;95.25;99178.13;106433;1263;61247;-70
2023/03/08 02:36:48;;;;;;;7.40;5.20;;;;;;;-0.24;95.32;99178.54;106435;1260;73132;-70
2023/03/08 02:39:15;;;;;;;8.20;5.20;;;;;;;-0.24;95.29;99174.38;105775;1260;69653;-71
2023/03/08 02:41:42;;;;;;;7.40;4.80;;;;;;;-0.23;95.24;99173.44;106576;1261;71549;-70
2023/03/08 02:44:08;;;;;;;9.80;4.90;;;;;;;-0.24;95.32;99173.95;106619;1260;61376;-70
2023/03/08 02:46:35;;;;;;;8.20;4.80;;;;;;;-0.23;95.38;99168.66;105834;1259;61267;-72
2023/03/08 02:49:05;;;;;;;7.50;5.00;;;;;;;-0.22;95.31;99168.61;105536;1259;75921;-73
2023/03/08 02:51:34;;;;;;;7.90;4.80;;;;;;;-0.22;95.10;99166.91;105589;1265;69604;-74
2023/03/08 02:54:03;;;;;;;7.40;4.70;;;;;;;-0.23;94.96;99166.48;105600;1261;71123;-70
2023/03/08 02:56:33;;;;;;;7.50;4.60;;;;;;;-0.25;94.91;99156.91;105682;1266;61154;-70
2023/03/08 02:59:03;;;;;;;8.50;5.00;;;;;;;-0.28;94.73;99156.81;105650;1263;62407;-70
2023/03/08 03:01:33;;;;;;;9.20;5.20;;;;;;;-0.32;94.67;99158.30;105728;1259;74571;-70
2023/03/08 03:04:00;;;;;;;7.70;4.90;;;;;;;-0.38;94.62;99157.48;106044;1263;72072;-70
2023/03/08 03:06:27;;;;;;;8.90;4.70;;;;;;;-0.44;94.62;99159.88;105891;1260;71946;-72
2023/03/08 03:08:53;;;;;;;9.20;4.90;;;;;;;-0.49;94.73;99159.52;105417;1262;61281;-69
2023/03/08 03:11:22;;;;;;;7.40;4.60;;;;;;;-0.55;94.71;99156.89;105815;1259;61276;-71
2023/03/08 03:13:58;;;;;;;7.20;4.70;;;;;;;-0.60;94.85;99156.20;105951;1261;73501;-71
2023/03/08 03:16:25;;;;;;;9.20;4.90;;;;;;;-0.66;94.85;99158.27;105729;1259;70899;-72
2023/03/08 03:18:54;;;;;;;7.60;4.50;;;;;;;-0.73;94.84;99157.33;105900;1263;71892;-72
2023/03/08 03:21:21;;;;;;;9.40;5.10;;;;;;;-0.77;94.86;99161.06;105611;1262;62266;-69
2023/03/08 03:23:48;;;;;;;6.20;4.70;;;;;;;-0.83;94.97;99163.10;105682;1259;62316;-70
2023/03/08 03:26:18;;;;;;;6.90;4.70;;;;;;;-0.88;95.09;99165.77;105492;1260;74507;-70
2023/03/08 03:28:47;;;;;;;7.80;5.00;;;;;;;-0.92;95.36;99172.77;105675;1266;70705;-70
2023/03/08 03:31:17;;;;;;;7.90;5.30;;;;;;;-0.97;95.41;99170.23;105802;1259;71448;-70
2023/03/08 03:33:45;;;;;;;10.20;5.30;;;;;;;-1.01;95.56;99165.12;105803;1265;62839;-70
2023/03/08 03:36:14;;;;;;;7.20;5.30;;;;;;;-1.05;95.66;99162.00;105736;1264;61236;-70
2023/03/08 03:38:41;;;;;;;8.00;5.90;;;;;;;-1.09;96.00;99161.98;105593;1259;73180;-70
2023/03/08 03:41:12;;;;;;;7.30;5.60;;;;;;;-1.11;96.57;99164.28;105792;1259;69842;-72
2023/03/08 03:43:40;;;;;;;9.70;5.60;;;;;;;-1.13;96.42;99160.83;105706;1262;71203;-70
2023/03/08 03:46:10;;;;;;;10.50;6.10;;;;;;;-1.15;96.46;99158.52;105761;1259;61267;-71
2023/03/08 03:48:37;;;;;;;9.90;6.40;;;;;;;-1.17;96.85;99159.05;105546;1267;61543;-70
2023/03/08 03:51:08;;;;;;;10.00;6.60;;;;;;;-1.17;97.10;99161.89;105768;1259;73478;-71
2023/03/08 03:53:35;;;;;;;9.80;6.40;;;;;;;-1.18;97.43;99164.40;105893;1259;71126;-70
2023/03/08 03:56:07;;;;;;;10.00;6.80;;;;;;;-1.17;97.55;99164.67;105548;1259;72419;-71
2023/03/08 03:58:43;;;;;;;9.10;6.40;;;;;;;-1.17;97.42;99166.34;105430;1259;61809;-70
2023/03/08 04:01:25;;;;;;;11.00;6.90;;;;;;;-1.17;97.51;99164.98;106228;1259;61261;-70
2023/03/08 04:03:53;;;;;;;13.40;7.40;;;;;;;-1.17;97.26;99162.39;105548;1259;73029;-69
2023/03/08 04:06:23;;;;;;;10.50;7.20;;;;;;;-1.17;97.50;99166.04;105818;1259;71177;-70
2023/03/08 04:09:02;;;;;;;11.50;7.40;;;;;;;-1.19;97.86;99161.65;105643;1260;72756;-71
2023/03/08 04:11:33;;;;;;;11.90;7.50;;;;;;;-1.20;97.84;99161.08;105982;1260;61632;-70
2023/03/08 04:14:04;;;;;;;12.10;7.50;;;;;;;-1.21;97.75;99161.17;105844;1260;61167;-69
2023/03/08 04:16:33;;;;;;;11.80;7.60;;;;;;;-1.22;97.81;99160.42;105617;1266;73877;-70
2023/03/08 04:19:06;;;;;;;14.20;7.30;;;;;;;-1.25;97.87;99163.38;105603;1259;71339;-70
2023/03/08 04:21:35;;;;;;;10.70;7.60;;;;;;;-1.26;97.89;99159.86;105543;1268;71640;-68
2023/03/08 04:24:03;;;;;;;11.90;7.60;;;;;;;-1.27;97.74;99162.55;105738;1259;61299;-73
2023/03/08 04:26:30;;;;;;;11.60;7.70;;;;;;;-1.27;97.86;99170.16;105777;1262;61713;-69
2023/03/08 04:28:56;;;;;;;12.40;8.20;;;;;;;-1.28;97.90;99171.77;105578;1259;74408;-71
2023/03/08 04:31:26;;;;;;;14.10;8.60;;;;;;;-1.27;98.35;99175.21;105725;1263;71745;-71
2023/03/08 04:33:56;;;;;;;16.40;9.40;;;;;;;-1.28;98.49;99173.17;105814;1262;70943;-70
2023/03/08 04:36:23;;;;;;;13.80;9.40;;;;;;;-1.27;98.48;99170.69;106107;1259;61388;-70
2023/03/08 04:38:50;;;;;;;17.50;10.00;;;;;;;-1.27;98.67;99163.56;105559;1261;61680;-70
2023/03/08 04:41:19;;;;;;;16.20;10.20;;;;;;;-1.27;98.85;99160.08;105853;1262;73567;-71
2023/03/08 04:43:52;;;;;;;16.60;9.90;;;;;;;-1.26;99.22;99155.13;105613;1260;70537;-70
2023/03/08 04:46:21;;;;;;;19.00;10.50;;;;;;;-1.25;99.58;99155.38;105713;1259;71510;-71
2023/03/08 04:48:51;;;;;;;15.70;9.40;;;;;;;-1.22;99.50;99160.06;105762;1259;61289;-74
2023/03/08 04:51:28;;;;;;;17.50;10.20;;;;;;;-1.22;99.47;99165.08;105711;1259;61344;-72
2023/03/08 04:53:55;;;;;;;16.60;10.10;;;;;;;-1.21;99.76;99158.73;105797;1260;74923;-73
2023/03/08 04:56:25;;;;;;;17.50;10.10;;;;;;;-1.19;99.66;99161.00;105951;1260;70166;-70
2023/03/08 04:58:51;;;;;;;16.50;10.00;;;;;;;-1.17;99.72;99163.21;105699;1259;72527;-69
2023/03/08 05:01:23;;;;;;;14.90;9.50;;;;;;;-1.15;99.47;99159.73;105854;1260;61772;-71
2023/03/08 05:03:51;;;;;;;17.90;10.00;;;;;;;-1.12;99.37;99160.88;105504;1259;61621;-71
2023/03/08 05:06:19;;;;;;;16.20;9.30;;;;;;;-1.10;99.36;99156.83;106051;1260;75181;-71
2023/03/08 05:08:48;;;;;;;18.40;8.90;;;;;;;-1.07;99.26;99158.86;105826;1259;70219;-71
2023/03/08 05:11:26;;;;;;;19.00;10.30;;;;;;;-1.02;99.22;99163.29;105690;1259;72912;-69
2023/03/08 05:13:53;;;;;;;15.40;8.20;;;;;;;-0.96;98.92;99163.58;105627;1268;61426;-70
2023/03/08 05:16:27;;;;;;;12.00;7.60;;;;;;;-0.93;98.72;99157.95;105788;1259;61489;-71
2023/03/08 05:18:57;;;;;;;15.20;8.70;;;;;;;-0.90;98.29;99163.19;105636;1266;74806;-71
2023/03/08 05:21:24;;;;;;;14.80;8.00;;;;;;;-0.86;98.06;99155.70;105719;1264;70953;-72
2023/03/08 05:23:51;;;;;;;11.80;6.80;;;;;;;-0.81;97.76;99159.94;106009;1259;72381;-69
2023/03/08 05:26:18;;;;;;;11.40;7.20;;;;;;;-0.76;97.63;99159.36;105495;1260;61347;-72
2023/03/08 05:28:45;;;;;;;10.50;6.60;;;;;;;-0.73;97.19;99157.73;105732;1260;61242;-74
2023/03/08 05:31:17;;;;;;;9.50;6.10;;;;;;;-0.70;96.80;99151.37;105543;1259;73152;-71
2023/03/08 05:33:45;;;;;;;10.30;6.40;;;;;;;-0.69;96.55;99141.55;105953;1259;69942;-70
2023/03/08 05:36:14;;;;;;;11.10;6.70;;;;;;;-0.70;96.21;99136.77;105586;1267;71167;-70
2023/03/08 05:38:41;;;;;;;11.50;6.80;;;;;;;-0.70;96.15;99136.80;105595;1267;61256;-70
2023/03/08 05:41:11;;;;;;;9.20;6.00;;;;;;;-0.72;96.01;99136.21;105637;1265;61164;-71
2023/03/08 05:43:40;;;;;;;9.40;6.00;;;;;;;-0.72;95.93;99128.95;106037;1259;74757;-71
2023/03/08 05:46:18;;;;;;;10.30;6.20;;;;;;;-0.72;95.91;99125.01;105862;1264;70510;-70
2023/03/08 05:48:46;;;;;;;9.60;6.00;;;;;;;-0.74;95.76;99117.73;106038;1259;71770;-70
2023/03/08 05:51:15;;;;;;;10.30;6.10;;;;;;;-0.76;95.72;99113.02;105684;1262;61278;-70
2023/03/08 05:53:45;;;;;;;10.20;6.20;;;;;;;-0.77;95.61;99111.56;106097;1260;61433;-70
2023/03/08 05:56:19;;;;;;;11.00;6.50;;;;;;;-0.78;95.64;99110.06;105967;1259;74685;-71
2023/03/08 05:58:47;;;;;;;11.30;6.10;;;;;;;-0.79;95.42;99106.52;106007;1259;71696;-71
2023/03/08 06:01:22;;;;;;;11.50;6.70;;;;;;;-0.80;95.49;99110.48;106071;1259;71514;-70
2023/03/08 06:03:51;;;;;;;11.20;6.80;;;;;;;-0.83;95.35;99118.48;106421;1259;61713;-70
2023/03/08 06:06:21;;;;;;;11.30;7.20;;;;;;;-0.85;95.35;99117.11;105715;1268;61253;-70
2023/03/08 06:08:49;;;;;;;10.50;7.20;;;;;;;-0.89;95.28;99118.50;105499;1267;73454;-71
2023/03/08 06:11:17;;;;;;;10.00;7.00;;;;;;;-0.90;95.32;99119.15;105820;1259;69704;-70
2023/03/08 06:13:44;;;;;;;9.60;6.30;;;;;;;-0.91;95.27;99118.04;105876;1259;72694;-72
2023/03/08 06:16:11;;;;;;;11.20;6.40;;;;;;;-0.92;95.41;99122.94;105858;1264;61247;-70
2023/03/08 06:18:40;;;;;;;9.40;6.60;;;;;;;-0.91;95.37;99119.34;105808;1265;61794;-71
2023/03/08 06:21:11;;;;;;;10.10;6.60;;;;;;;-0.87;95.53;99120.27;105713;1259;73241;-72
2023/03/08 06:23:38;;;;;;;10.60;6.30;;;;;;;-0.84;95.66;99126.88;105888;1259;69700;-73
2023/03/08 06:26:06;;;;;;;10.70;6.50;;;;;;;-0.80;95.35;99129.36;105615;1259;70414;-71
2023/03/08 06:28:36;;;;;;;10.10;6.80;;;;;;;-0.78;95.22;99129.88;105821;1260;61378;-70
2023/03/08 06:31:03;;;;;;;8.90;5.50;;;;;;;-0.75;94.97;99126.70;105907;1260;61339;-69
2023/03/08 06:33:32;;;;;;;9.10;5.70;;;;;;;-0.74;94.78;99127.63;105725;1259;72213;-69
2023/03/08 06:36:05;;;;;;;10.60;6.00;;;;;;;-0.73;94.63;99125.79;105691;1266;70512;-71
2023/03/08 06:38:34;;;;;;;8.60;6.00;;;;;;;-0.69;94.78;99126.80;106037;1260;72406;-71
2023/03/08 06:41:01;;;;;;;8.50;6.00;;;;;;;-0.65;94.74;99127.10;106206;1259;61705;-70
2023/03/08 06:43:31;;;;;;;10.60;5.90;;;;;;;-0.59;94.75;99125.98;105715;1259;61299;-71
2023/03/08 06:45:57;;;;;;;9.40;5.60;;;;;;;-0.52;94.60;99124.66;105509;1259;74472;-70
2023/03/08 06:48:27;;;;;;;8.90;5.60;;;;;;;-0.46;94.28;99123.91;105772;1264;70030;-72
2023/03/08 06:50:53;;;;;;;9.40;5.80;;;;;;;-0.39;94.23;99127.30;105878;1260;72401;-70
2023/03/08 06:53:23;;;;;;;8.80;5.40;;;;;;;-0.33;93.86;99125.40;105678;1260;61642;-73
2023/03/08 06:55:50;;;;;;;10.20;6.00;;;;;;;-0.28;93.54;99124.20;105684;1264;61419;-70
2023/03/08 06:58:17;;;;;;;11.20;5.90;;;;;;;-0.22;93.42;99118.73;105878;1259;76389;-72
2023/03/08 07:00:44;;;;;;;7.70;5.40;;;;;;;-0.15;93.39;99117.25;105579;1265;69841;-72
2023/03/08 07:03:12;;;;;;;8.10;5.40;;;;;;;-0.08;93.25;99116.75;105837;1263;71845;-70
2023/03/08 07:05:39;;;;;;;8.50;5.80;;;;;;;-0.03;92.87;99120.20;105638;1259;61372;-73
2023/03/08 07:08:10;;;;;;;8.00;5.80;;;;;;;0.03;92.34;99114.49;105649;1260;61305;-72
2023/03/08 07:10:37;;;;;;;10.70;6.00;;;;;;;0.10;92.43;99118.38;105769;1259;75919;-71
2023/03/08 07:13:04;;;;;;;10.90;5.60;;;;;;;0.16;92.39;99116.74;106121;1259;70924;-71
2023/03/08 07:15:31;;;;;;;8.70;5.90;;;;;;;0.25;92.42;99115.37;105596;1262;72965;-69
2023/03/08 07:18:00;;;;;;;10.00;5.20;;;;;;;0.33;92.20;99115.75;105826;1262;61343;-71
2023/03/08 07:20:27;;;;;;;9.00;5.40;;;;;;;0.40;91.89;99113.86;105548;1260;61868;-73
2023/03/08 07:23:00;;;;;;;8.20;5.10;;;;;;;0.48;91.60;99103.02;105761;1265;74896;-69
2023/03/08 07:25:27;;;;;;;7.90;5.10;;;;;;;0.54;91.25;99097.55;105787;1259;71204;-71
2023/03/08 07:27:54;;;;;;;8.80;5.40;;;;;;;0.61;91.16;99090.46;105606;1262;72708;-72
2023/03/08 07:30:21;;;;;;;8.60;5.70;;;;;;;0.67;90.88;99088.27;105774;1260;61348;-75
2023/03/08 07:32:48;;;;;;;7.40;5.30;;;;;;;0.74;90.84;99088.25;105769;1268;61363;-70
2023/03/08 07:35:15;;;;;;;7.80;5.40;;;;;;;0.82;90.56;99089.92;105849;1264;74691;-72
2023/03/08 07:37:46;;;;;;;7.80;5.40;;;;;;;0.90;90.23;99082.92;105841;1264;70061;-72
2023/03/08 07:40:15;;;;;;;8.70;6.00;;;;;;;1.00;90.14;99083.19;105847;1260;73698;-71
2023/03/08 07:42:45;;;;;;;8.40;6.00;;;;;;;1.11;89.91;99080.09;105679;1265;61430;-71
2023/03/08 07:45:12;;;;;;;9.60;6.10;;;;;;;1.21;89.35;99081.01;105673;1259;61659;-71
2023/03/08 07:47:40;;;;;;;9.20;6.20;;;;;;;1.27;88.20;99076.49;105543;1260;73225;-73
2023/03/08 07:50:10;;;;;;;8.30;5.70;;;;;;;1.31;88.26;99070.66;105783;1259;70307;-70
2023/03/08 07:52:37;;;;;;;9.90;6.70;;;;;;;1.38;88.17;99067.45;105646;1259;72405;-71
2023/03/08 07:55:05;;;;;;;8.50;6.10;;;;;;;1.46;88.11;99071.37;105925;1270;61746;-70
2023/03/08 07:57:32;;;;;;;9.30;6.40;;;;;;;1.52;87.55;99067.09;105759;1265;61146;-71
2023/03/08 07:59:58;;;;;;;10.20;6.80;;;;;;;1.57;87.21;99065.70;105864;1259;72488;-73
2023/03/08 08:02:25;;;;;;;9.80;6.90;;;;;;;1.60;86.92;99063.13;105923;1265;69346;-70
2023/03/08 08:04:52;;;;;;;12.80;7.10;;;;;;;1.66;87.06;99064.66;106041;1260;72783;-69
2023/03/08 08:07:19;;;;;;;9.40;7.00;;;;;;;1.71;86.23;99064.86;105726;1265;61686;-70
2023/03/08 08:09:45;;;;;;;10.70;7.20;;;;;;;1.77;86.32;99065.61;105800;1259;61877;-70
2023/03/08 08:12:13;;;;;;;10.40;7.40;;;;;;;1.83;86.09;99065.08;105638;1265;74166;-69
2023/03/08 08:14:40;;;;;;;11.00;6.60;;;;;;;1.90;86.06;99063.75;105989;1265;69747;-70
2023/03/08 08:17:06;;;;;;;10.50;7.30;;;;;;;1.93;85.25;99064.41;105717;1260;71606;-71
2023/03/08 08:19:37;;;;;;;10.80;7.50;;;;;;;1.98;85.61;99066.03;105506;1260;61239;-70
2023/03/08 08:22:04;;;;;;;9.30;7.10;;;;;;;2.07;85.29;99061.45;105566;1259;61262;-70
2023/03/08 08:24:31;;;;;;;10.70;7.60;;;;;;;2.14;84.98;99065.38;105774;1265;73867;-70
2023/03/08 08:26:58;;;;;;;11.90;7.70;;;;;;;2.22;84.86;99061.73;106055;1265;71634;-70
2023/03/08 08:29:25;;;;;;;10.50;8.10;;;;;;;2.28;83.90;99059.11;105643;1262;71641;-71
2023/03/08 08:31:52;;;;;;;12.40;7.90;;;;;;;2.33;84.10;99063.77;105609;1266;61254;-72
2023/03/08 08:34:19;;;;;;;11.80;8.40;;;;;;;2.39;83.92;99065.05;105922;1264;61241;-73
2023/03/08 08:36:46;;;;;;;11.50;7.90;;;;;;;2.42;83.65;99064.34;105773;1260;74919;-71
2023/03/08 08:39:13;;;;;;;13.40;8.50;;;;;;;2.39;82.96;99062.80;105688;1260;70103;-69
2023/03/08 08:41:40;;;;;;;11.90;8.50;;;;;;;2.37;83.06;99063.58;105836;1259;71940;-72
2023/03/08 08:44:07;;;;;;;15.50;9.70;;;;;;;2.30;82.64;99055.86;105614;1259;61139;-71
2023/03/08 08:46:34;;;;;;;12.70;9.20;;;;;;;2.27;82.80;99058.34;105563;1260;61392;-70
2023/03/08 08:49:04;;;;;;;12.30;9.30;;;;;;;2.27;83.00;99053.40;105373;1259;847363;-70
2023/03/08 08:51:31;;;;;;;12.00;8.90;;;;;;;2.28;82.70;99053.69;105569;1265;71398;-70
2023/03/08 08:53:58;;;;;;;12.80;8.90;;;;;;;2.27;82.54;99052.05;105889;1260;73474;-73
2023/03/08 08:56:27;;;;;;;14.20;9.80;;;;;;;2.26;81.98;99054.74;105573;1260;61425;-70
2023/03/08 08:58:56;;;;;;;13.20;9.50;;;;;;;2.27;82.12;99055.55;105894;1260;61167;-70
2023/03/08 09:01:27;;;;;;;14.30;9.50;;;;;;;2.29;82.14;99056.32;105558;1265;74061;-70
2023/03/08 09:03:54;;;;;;;15.00;10.00;;;;;;;2.30;81.68;99056.41;105668;1259;70025;-71
2023/03/08 09:06:24;;;;;;;14.30;9.50;;;;;;;2.27;81.33;99054.24;105818;1265;72706;-71
2023/03/08 09:08:56;;;;;;;12.70;8.80;;;;;;;2.32;82.12;99051.27;105784;1266;62380;-70
2023/03/08 09:11:27;;;;;;;15.20;10.10;;;;;;;2.33;81.41;99049.52;105526;1266;62299;-71
2023/03/08 09:13:54;;;;;;;13.10;9.30;;;;;;;2.33;81.22;99042.48;105733;1259;72452;-69
2023/03/08 09:16:26;;;;;;;14.70;9.80;;;;;;;2.37;81.23;99038.53;105780;1264;72058;-71
2023/03/08 09:18:55;;;;;;;14.00;9.20;;;;;;;2.42;80.86;99034.58;105611;1263;73704;-71
2023/03/08 09:21:23;;;;;;;14.20;9.20;;;;;;;2.51;80.70;99026.81;105407;1261;61348;-71
2023/03/08 09:23:51;;;;;;;14.10;9.10;;;;;;;2.55;80.05;99020.59;105645;1265;61638;-73
2023/03/08 09:26:18;;;;;;;13.80;9.30;;;;;;;2.62;80.03;99017.10;105937;1260;75064;-71
2023/03/08 09:28:45;;;;;;;13.90;9.50;;;;;;;2.69;79.80;99021.08;105583;1268;70056;-70
2023/03/08 09:31:17;;;;;;;14.90;9.10;;;;;;;2.77;79.97;99013.48;105797;1259;70994;-70
2023/03/08 09:33:47;;;;;;;14.60;9.80;;;;;;;2.85;79.47;99011.55;105532;1266;61321;-71
2023/03/08 09:36:15;;;;;;;13.00;9.60;;;;;;;2.94;79.21;99006.34;105550;1266;61658;-70
2023/03/08 09:38:42;;;;;;;12.90;9.70;;;;;;;2.96;78.32;98996.77;105609;1259;73153;-70
2023/03/08 09:41:20;;;;;;;13.10;9.50;;;;;;;2.95;77.46;98991.34;105507;1266;71154;-70
2023/03/08 09:43:56;;;;;;;12.90;9.50;;;;;;;2.94;77.47;98991.47;105890;1260;71797;-69
2023/03/08 09:46:31;;;;;;;14.90;9.80;;;;;;;3.02;78.59;98983.64;105894;1264;61356;-71
2023/03/08 09:49:02;;;;;;;13.70;10.10;;;;;;;3.10;78.78;98980.09;105653;1266;61267;-72
2023/03/08 09:51:35;;;;;;;15.70;10.60;;;;;;;3.16;78.40;98981.70;105842;1262;74887;-72
2023/03/08 09:54:07;;;;;;;14.60;10.30;;;;;;;3.24;78.51;98977.86;105978;1264;71228;-70
2023/03/08 09:56:47;;;;;;;14.30;10.40;;;;;;;3.33;78.32;98972.80;105771;1259;72361;-71
2023/03/08 09:59:39;;;;;;;14.60;10.40;;;;;;;3.40;77.93;98975.49;105535;1266;61104;-71
2023/03/08 10:02:25;;;;;;;15.30;11.20;;;;;;;3.48;77.39;98969.43;105504;1261;61247;-70
2023/03/08 10:05:03;;;;;;;14.80;10.20;;;;;;;3.52;76.72;98956.99;105815;1260;72935;-69
2023/03/08 10:07:57;;;;;;;12.60;11.20;;;;;;;3.53;76.72;98948.79;105783;1260;71214;-70
2023/03/08 10:10:58;;;;;;;18.60;11.40;;;;;;;3.56;76.32;98942.67;105760;1267;70747;-70
2023/03/08 10:13:28;;;;;;;15.90;11.50;;;;;;;3.63;76.66;98942.90;105548;1266;61250;-74
2023/03/08 10:16:03;;;;;;;14.50;10.70;;;;;;;3.76;77.55;98939.50;105849;1261;61296;-69
2023/03/08 10:18:52;;;;;;;14.30;10.30;;;;;;;3.85;76.25;98938.49;105517;1261;74473;-72
2023/03/08 10:21:22;;;;;;;16.10;11.80;;;;;;;3.90;75.92;98934.59;105784;1264;71269;-73
2023/03/08 10:24:33;;;;;;;16.10;11.60;;;;;;;3.94;75.73;98925.61;105908;1264;73193;-72
2023/03/08 10:27:19;;;;;;;14.40;10.50;;;;;;;4.00;75.62;98922.73;105831;1260;62720;-71
2023/03/08 10:29:48;;;;;;;12.70;11.40;;;;;;;4.02;75.38;98916.77;105724;1259;61745;-71
2023/03/08 10:32:15;;;;;;;16.40;11.60;;;;;;;4.05;75.52;98914.17;105597;1259;73327;-70
2023/03/08 10:34:42;;;;;;;16.60;10.80;;;;;;;4.09;75.22;98911.77;106009;1261;71237;-71
2023/03/08 10:37:09;;;;;;;15.80;11.70;;;;;;;4.13;74.95;98910.73;105593;1266;71612;-70
2023/03/08 10:39:46;;;;;;;17.60;12.10;;;;;;;4.18;74.74;98912.37;105755;1260;61176;-72
2023/03/08 10:42:15;;;;;;;16.00;11.40;;;;;;;4.29;74.89;98910.95;105607;1266;61280;-70
2023/03/08 10:45:01;;;;;;;16.40;11.30;;;;;;;4.44;75.00;98911.08;106078;1260;74994;-68
2023/03/08 10:47:33;;;;;;;15.20;10.90;;;;;;;4.58;74.22;98904.23;105687;1260;71164;-71
2023/03/08 10:50:03;;;;;;;14.80;10.50;;;;;;;4.61;72.84;98901.02;105518;1266;72730;-72
2023/03/08 10:52:33;;;;;;;15.60;11.20;;;;;;;4.60;72.34;98897.77;106080;1263;61568;-70
2023/03/08 10:55:15;;;;;;;15.70;11.50;;;;;;;4.63;72.48;98894.90;105733;1260;61249;-70
2023/03/08 10:57:54;;;;;;;15.30;10.80;;;;;;;4.59;71.71;98889.68;105792;1264;74383;-70
2023/03/08 11:00:23;;;;;;;16.70;11.20;;;;;;;4.59;72.06;98887.28;105987;1265;71040;-71
2023/03/08 11:03:02;;;;;;;16.30;11.20;;;;;;;4.59;72.66;98884.10;105702;1265;73182;-71
2023/03/08 11:05:29;;;;;;;15.40;10.70;;;;;;;4.60;73.03;98879.13;105841;1260;61246;-72
2023/03/08 11:07:59;;;;;;;16.20;11.80;;;;;;;4.64;73.85;98882.08;105564;1260;61438;-71
2023/03/08 11:10:28;;;;;;;13.70;11.20;;;;;;;4.74;73.91;98878.88;105893;1263;74365;-71
2023/03/08 11:13:23;;;;;;;15.20;11.20;;;;;;;4.79;73.57;98879.85;105599;1268;70028;-71
2023/03/08 11:16:06;;;;;;;16.30;11.80;;;;;;;4.80;72.56;98878.09;105744;1265;71134;-72
2023/03/08 11:18:38;;;;;;;16.60;11.50;;;;;;;4.86;72.96;98882.07;105630;1266;61369;-71
2023/03/08 11:21:20;;;;;;;17.80;11.90;;;;;;;4.87;72.18;98880.19;105939;1264;61236;-71
2023/03/08 11:24:18;;;;;;;18.60;12.40;;;;;;;4.89;72.61;98880.38;105680;1265;73111;-71
2023/03/08 11:26:52;;;;;;;14.90;11.00;;;;;;;4.93;72.36;98882.73;105803;1260;71413;-72
2023/03/08 11:29:44;;;;;;;16.20;11.40;;;;;;;4.90;71.46;98883.13;105813;1260;71473;-70
2023/03/08 11:32:17;;;;;;;14.10;10.10;;;;;;;4.81;71.17;98884.33;105899;1265;61246;-70
2023/03/08 11:35:30;;;;;;;15.80;11.50;;;;;;;4.69;71.44;98882.94;105728;1261;61903;-70
2023/03/08 11:38:25;;;;;;;14.70;10.80;;;;;;;4.64;71.53;98878.99;105386;1261;73172;-73